Atascadero, CA (93422)

4:16 PM PST on December 26, 2014 (GMT -0800)
Ranchette | Change Station
CLOSE
Current Station
Personal Weather Station
Location: Atascadero, CA
Elevation: 1014 ft
Nearby Weather Stations
Active Advisory: Hard Freeze Warning Active Notice: Public Information Statement

Elev 1014 ft 35.48 °N, 120.69 °W | Updated 2 minutes ago

Clear
Clear
51.4 °F
Feels Like 51.4 °F
N
1.7
Wind Variable Wind from NNW

Today
High -- | Low -- °F
--% Chance of Precip.
Yesterday
High -- | Low -- °F
Precip. -- in
7:10 AM 4:56 PM
Waxing Crescent, 30% visible
Pressure 30.14 in
Visibility 10.0 miles
Clouds Clear
Dew Point 32 °F
Humidity 47%
Rainfall 0.00 in
Snow Depth Not available.
UV 0 out of 12
Pollen 4.60 out of 12
Air Quality Not available.
Flu Activity Not available.
METAR KPRB 262353Z AUTO 33005KT 10SM CLR 12/M02 A3014 RMK AO2 SLP207 T01221017 10128 20044 53003 TSNO

More Conditions Fewer Conditions

Pressure 30.14 in
Visibility 10.0 miles
Clouds Clear
Dew Point 32 °F
Humidity 47%
Rainfall 0.00 in
Snow Depth Not available.
UV 0 out of 12
Pollen 4.60 out of 12
Air Quality Not available.
Flu Activity Not available.
METAR KPRB 262353Z AUTO 33005KT 10SM CLR 12/M02 A3014 RMK AO2 SLP207 T01221017 10128 20044 53003 TSNO

More Conditions Fewer Conditions

10-Day Weather Forecast

Almanac

Astronomy

Dec. 26, 2014 Rise Set
Actual Time
Civil Twilight
Nautical Twilight
Astronomical Twilight
Moon
Length of Visible Light
Length of Day
Tomorrow will be .
, % of the Moon is Illuminated

Today's Extremes

State Highs State Lows

Community

WunderPhotos

Upload Photos

1,780,792 photos uploaded!

WunderBlogs® & News

Nearby

Air Quality

  Air Quality AQ Index Pollutant
Not available.

Snow Depth

Station Depth Elevation

Earthquake Activity

City Distance Mag. Time & Date
Minimum magnitude displayed is 2.5.

Coastal Water Temperatures

Place Temperature

Nearby Weather Stations